createdAt,value
2023-06-17T00:00:26.593Z,99539.34
2023-06-17T00:04:49.925Z,99546.75
2023-06-17T00:09:15.216Z,99548.56
2023-06-17T00:13:38.633Z,99553.28
2023-06-17T00:18:04.875Z,99544.56
2023-06-17T00:22:30.772Z,99550.00
2023-06-17T00:26:56.234Z,99543.09
2023-06-17T00:31:19.937Z,99545.88
2023-06-17T00:35:43.613Z,99553.16
2023-06-17T00:40:09.457Z,99539.13
2023-06-17T00:44:34.366Z,99550.72
2023-06-17T00:48:58.106Z,99553.56
2023-06-17T00:53:22.045Z,99557.25
2023-06-17T00:57:47.598Z,99548.41
2023-06-17T01:02:14.709Z,99535.09
2023-06-17T01:06:47.036Z,99537.75
2023-06-17T01:11:14.771Z,99549.25
2023-06-17T01:15:39.474Z,99552.03
2023-06-17T01:20:07.211Z,99546.66
2023-06-17T01:24:32.440Z,99548.41
2023-06-17T01:29:00.981Z,99544.84
2023-06-17T01:33:25.958Z,99533.22
2023-06-17T01:37:55.601Z,99542.91
2023-06-17T01:42:27.976Z,99547.56
2023-06-17T01:46:51.410Z,99537.09
2023-06-17T01:51:16.048Z,99535.44
2023-06-17T01:55:40.157Z,99546.13
2023-06-17T02:00:06.032Z,99553.31
2023-06-17T02:04:29.395Z,99541.84
2023-06-17T02:08:54.905Z,99546.41
2023-06-17T02:13:29.385Z,99545.66
2023-06-17T02:17:56.816Z,99545.78
2023-06-17T02:22:20.383Z,99551.31
2023-06-17T02:26:44.303Z,99551.59
2023-06-17T02:31:08.670Z,99556.38
2023-06-17T02:35:34.189Z,99562.69
2023-06-17T02:39:57.817Z,99552.94
2023-06-17T02:44:21.382Z,99557.34
2023-06-17T02:48:45.049Z,99559.13
2023-06-17T02:53:10.389Z,99562.75
2023-06-17T02:57:34.112Z,99562.75
2023-06-17T03:01:58.917Z,99567.09
2023-06-17T03:06:22.839Z,99566.25
2023-06-17T03:10:50.116Z,99570.78
2023-06-17T03:15:14.536Z,99567.16
2023-06-17T03:19:39.226Z,99575.06
2023-06-17T03:24:03.663Z,99575.00
2023-06-17T03:28:30.869Z,99572.44
2023-06-17T03:32:58.669Z,99570.72
2023-06-17T03:37:23.181Z,99574.28
2023-06-17T03:41:46.724Z,99573.50
2023-06-17T03:46:12.887Z,99585.91
2023-06-17T03:50:37.129Z,99573.56
2023-06-17T03:55:03.356Z,99578.09
2023-06-17T03:59:26.780Z,99573.75
2023-06-17T04:03:53.115Z,99566.69
2023-06-17T04:08:19.191Z,99572.94
2023-06-17T04:12:44.438Z,99570.28
2023-06-17T04:17:08.043Z,99569.34
2023-06-17T04:21:33.339Z,99571.09
2023-06-17T04:25:58.140Z,99570.16
2023-06-17T04:30:22.437Z,99569.19
2023-06-17T04:34:49.370Z,99573.50
2023-06-17T04:39:15.637Z,99582.22
2023-06-17T04:43:39.575Z,99575.91
2023-06-17T04:48:07.189Z,99574.91
2023-06-17T04:52:32.544Z,99581.72
2023-06-17T04:57:00.481Z,99581.41
2023-06-17T05:01:24.377Z,99577.59
2023-06-17T05:05:47.960Z,99587.16
2023-06-17T05:10:13.518Z,99586.00
2023-06-17T05:14:38.252Z,99594.72
2023-06-17T05:19:03.500Z,99591.84
2023-06-17T05:23:27.390Z,99593.28
2023-06-17T05:27:52.733Z,99601.03
2023-06-17T05:32:19.794Z,99592.66
2023-06-17T05:36:43.582Z,99596.88
2023-06-17T05:41:08.206Z,99597.56
2023-06-17T05:45:32.607Z,99599.88
2023-06-17T05:49:57.653Z,99591.63
2023-06-17T05:54:21.530Z,99601.09
2023-06-17T05:58:45.268Z,99594.78
2023-06-17T06:03:19.008Z,99607.66
2023-06-17T06:07:44.652Z,99601.31
2023-06-17T06:12:08.643Z,99601.06
2023-06-17T06:16:33.143Z,99602.91
2023-06-17T06:20:56.787Z,99597.38
2023-06-17T06:25:21.790Z,99594.97
2023-06-17T06:29:45.683Z,99595.97
2023-06-17T06:34:10.582Z,99590.00
2023-06-17T06:38:34.727Z,99595.38
2023-06-17T06:43:00.651Z,99593.66
2023-06-17T06:47:35.522Z,99594.75
2023-06-17T06:51:59.353Z,99591.38
2023-06-17T06:56:25.826Z,99600.47
2023-06-17T07:00:50.576Z,99599.41
2023-06-17T07:05:14.846Z,99590.59
2023-06-17T07:09:44.752Z,99599.06
2023-06-17T07:14:08.709Z,99596.72
2023-06-17T07:18:33.660Z,99590.75
2023-06-17T07:22:57.529Z,99607.13
2023-06-17T07:27:21.283Z,99612.06
2023-06-17T07:31:44.950Z,99610.22
2023-06-17T07:36:09.712Z,99607.63
2023-06-17T07:40:34.256Z,99591.06
2023-06-17T07:44:57.950Z,99593.03
2023-06-17T07:49:21.577Z,99586.03
2023-06-17T07:53:46.273Z,99592.28
2023-06-17T07:58:10.178Z,99581.53
2023-06-17T08:02:33.544Z,99581.72
2023-06-17T08:06:57.395Z,99563.69
2023-06-17T08:11:22.056Z,99575.41
2023-06-17T08:15:45.704Z,99576.81
2023-06-17T08:20:11.214Z,99574.28
2023-06-17T08:24:35.448Z,99585.84
2023-06-17T08:29:00.523Z,99584.63
2023-06-17T08:33:24.115Z,99583.03
2023-06-17T08:37:48.385Z,99573.66
2023-06-17T08:42:12.534Z,99566.91
2023-06-17T08:46:39.650Z,99579.09
2023-06-17T08:51:03.696Z,99578.72
2023-06-17T08:55:27.189Z,99571.44
2023-06-17T08:59:50.884Z,99565.88
2023-06-17T09:04:16.367Z,99571.88
2023-06-17T09:08:40.186Z,99566.75
2023-06-17T09:13:03.492Z,99557.53
2023-06-17T09:17:32.400Z,99550.41
2023-06-17T09:21:57.403Z,99542.44
2023-06-17T09:26:21.193Z,99544.97
2023-06-17T09:30:45.072Z,99538.38
2023-06-17T09:35:13.477Z,99533.22
2023-06-17T09:39:38.211Z,99538.47
2023-06-17T09:44:02.133Z,99541.69
2023-06-17T09:48:31.067Z,99527.28
2023-06-17T09:52:57.749Z,99517.13
2023-06-17T09:57:22.958Z,99511.34
2023-06-17T10:01:47.943Z,99513.97
2023-06-17T10:06:13.127Z,99516.00
2023-06-17T10:10:36.967Z,99513.88
2023-06-17T10:15:04.951Z,99508.00
2023-06-17T10:19:33.731Z,99509.84
2023-06-17T10:23:59.294Z,99506.38
2023-06-17T10:28:23.132Z,99501.66
2023-06-17T10:32:54.196Z,99493.47
2023-06-17T10:37:29.147Z,99494.66
2023-06-17T10:41:58.818Z,99499.06
2023-06-17T10:46:27.121Z,99492.28
2023-06-17T10:50:58.052Z,99488.03
2023-06-17T10:55:22.276Z,99495.41
2023-06-17T10:59:45.562Z,99484.28
2023-06-17T11:04:09.821Z,99479.25
2023-06-17T11:08:35.783Z,99469.81
2023-06-17T11:12:59.774Z,99468.63
2023-06-17T11:17:23.113Z,99470.38
2023-06-17T11:21:46.980Z,99466.25
2023-06-17T11:26:12.186Z,99463.44
2023-06-17T11:30:36.589Z,99460.78
2023-06-17T11:35:01.091Z,99462.94
2023-06-17T11:39:25.082Z,99452.34
2023-06-17T11:43:51.011Z,99451.84
2023-06-17T11:48:14.671Z,99437.47
2023-06-17T11:52:38.470Z,99432.06
2023-06-17T11:57:03.901Z,99439.31
2023-06-17T12:01:28.800Z,99441.81
2023-06-17T12:05:52.565Z,99441.16
2023-06-17T12:10:16.487Z,99442.50
2023-06-17T12:14:40.265Z,99431.09
2023-06-17T12:19:07.292Z,99427.22
2023-06-17T12:23:31.050Z,99428.09
2023-06-17T12:27:54.364Z,99418.28
2023-06-17T12:32:18.140Z,99438.25
2023-06-17T12:36:42.837Z,99422.03
2023-06-17T12:41:06.858Z,99430.44
2023-06-17T12:45:30.981Z,99430.13
2023-06-17T12:49:54.551Z,99423.28
2023-06-17T12:54:19.989Z,99432.16
2023-06-17T12:58:43.288Z,99431.38
2023-06-17T13:03:08.006Z,99437.78
2023-06-17T13:07:31.276Z,99435.03
2023-06-17T13:11:56.354Z,99443.38
2023-06-17T13:16:19.909Z,99447.13
2023-06-17T13:20:43.913Z,99442.09
2023-06-17T13:25:08.407Z,99438.75
2023-06-17T13:29:34.216Z,99441.66
2023-06-17T13:33:58.557Z,99445.34
2023-06-17T13:38:22.471Z,99441.97
2023-06-17T13:42:45.758Z,99445.13
2023-06-17T13:47:11.368Z,99447.03
2023-06-17T13:51:36.074Z,99470.84
2023-06-17T13:56:00.590Z,99464.31
2023-06-17T14:00:24.083Z,99445.69
2023-06-17T14:04:52.129Z,99459.28
2023-06-17T14:09:15.906Z,99455.31
2023-06-17T14:13:41.558Z,99464.78
2023-06-17T14:18:05.201Z,99457.63
2023-06-17T14:22:30.857Z,99458.03
2023-06-17T14:27:36.021Z,99463.44
2023-06-17T14:31:59.289Z,99453.53
2023-06-17T14:36:23.087Z,99448.22
2023-06-17T14:40:47.676Z,99445.16
2023-06-17T14:45:12.897Z,99442.34
2023-06-17T14:49:36.186Z,99453.72
2023-06-17T14:53:59.873Z,99447.72
2023-06-17T14:58:24.969Z,99441.25
2023-06-17T15:02:55.768Z,99429.34
2023-06-17T15:07:19.467Z,99435.22
2023-06-17T15:11:43.077Z,99445.50
2023-06-17T15:16:07.967Z,99452.44
2023-06-17T15:20:31.511Z,99451.38
2023-06-17T15:24:54.816Z,99457.09
2023-06-17T15:29:18.368Z,99446.28
2023-06-17T15:33:42.961Z,99452.63
2023-06-17T15:38:06.573Z,99453.63
2023-06-17T15:42:29.824Z,99450.31
2023-06-17T15:46:53.793Z,99468.25
2023-06-17T15:51:18.435Z,99491.34
2023-06-17T15:55:42.081Z,99523.31
2023-06-17T16:00:07.390Z,99525.03
2023-06-17T16:04:37.631Z,99536.44
2023-06-17T16:09:02.365Z,99527.13
2023-06-17T16:13:26.075Z,99528.66
2023-06-17T16:17:49.410Z,99513.13
2023-06-17T16:22:13.643Z,99499.97
2023-06-17T16:26:38.435Z,99505.75
2023-06-17T16:31:02.214Z,99496.28
2023-06-17T16:35:25.556Z,99486.19
2023-06-17T16:39:49.069Z,99503.69
2023-06-17T16:44:13.754Z,99507.47
2023-06-17T16:48:37.307Z,99524.81
2023-06-17T16:53:00.642Z,99527.50
2023-06-17T16:57:24.526Z,99538.69
2023-06-17T17:01:49.611Z,99530.47
2023-06-17T17:06:13.247Z,99532.19
2023-06-17T17:10:36.589Z,99529.19
2023-06-17T17:15:00.216Z,99536.28
2023-06-17T17:19:25.460Z,99536.47
2023-06-17T17:23:48.766Z,99533.94
2023-06-17T17:28:12.163Z,99535.03
2023-06-17T17:32:39.282Z,99529.94
2023-06-17T17:37:04.484Z,99536.94
2023-06-17T17:41:29.433Z,99528.03
2023-06-17T17:45:52.706Z,99529.31
2023-06-17T17:50:16.497Z,99538.31
2023-06-17T17:54:53.162Z,99528.78
2023-06-17T17:59:24.707Z,99534.47
2023-06-17T18:03:48.717Z,99547.44
2023-06-17T18:08:12.531Z,99555.25
2023-06-17T18:12:37.193Z,99553.91
2023-06-17T18:17:00.850Z,99554.88
2023-06-17T18:21:28.135Z,99545.88
2023-06-17T18:25:51.899Z,99536.25
2023-06-17T18:30:17.005Z,99545.41
2023-06-17T18:34:40.226Z,99551.78
2023-06-17T18:39:04.498Z,99557.22
2023-06-17T18:43:27.772Z,99567.44
2023-06-17T18:47:53.050Z,99563.41
2023-06-17T18:52:16.655Z,99566.50
2023-06-17T18:56:40.756Z,99557.81
2023-06-17T19:01:04.591Z,99560.72
2023-06-17T19:05:30.080Z,99549.72
2023-06-17T19:09:53.366Z,99556.50
2023-06-17T19:14:17.537Z,99556.63
2023-06-17T19:18:40.995Z,99576.50
2023-06-17T19:23:06.597Z,99579.31
2023-06-17T19:27:29.924Z,99587.50
2023-06-17T19:31:53.957Z,99588.47
2023-06-17T19:36:17.241Z,99596.81
2023-06-17T19:40:42.558Z,99606.16
2023-06-17T19:45:06.638Z,99593.19
2023-06-17T19:49:30.646Z,99605.06
2023-06-17T19:53:53.822Z,99610.72
2023-06-17T19:58:19.019Z,99614.53
2023-06-17T20:02:42.342Z,99615.63
2023-06-17T20:07:06.522Z,99626.59
2023-06-17T20:11:29.741Z,99626.28
2023-06-17T20:15:55.009Z,99636.41
2023-06-17T20:20:18.248Z,99634.94
2023-06-17T20:24:42.672Z,99630.94
2023-06-17T20:29:06.256Z,99619.63
2023-06-17T20:33:33.008Z,99625.22
2023-06-17T20:37:56.226Z,99625.50
2023-06-17T20:42:20.279Z,99622.16
2023-06-17T20:46:43.598Z,99616.97
2023-06-17T20:51:11.490Z,99619.03
2023-06-17T20:55:35.946Z,99619.44
2023-06-17T20:59:59.799Z,99617.94
2023-06-17T21:04:23.006Z,99614.56
2023-06-17T21:08:48.377Z,99613.78
2023-06-17T21:13:12.742Z,99607.97
2023-06-17T21:17:36.826Z,99617.25
2023-06-17T21:22:01.055Z,99622.06
2023-06-17T21:26:27.141Z,99618.81
2023-06-17T21:30:50.329Z,99621.72
2023-06-17T21:35:14.235Z,99614.88
2023-06-17T21:39:39.182Z,99622.09
2023-06-17T21:44:04.878Z,99606.16
2023-06-17T21:48:28.207Z,99613.59
2023-06-17T21:52:52.146Z,99619.19
2023-06-17T21:57:16.137Z,99623.78
2023-06-17T22:01:41.606Z,99621.31
2023-06-17T22:06:05.006Z,99625.97
2023-06-17T22:10:29.087Z,99635.13
2023-06-17T22:14:53.140Z,99637.84
2023-06-17T22:19:18.580Z,99641.56
2023-06-17T22:23:41.782Z,99648.88
2023-06-17T22:28:05.913Z,99645.47
2023-06-17T22:32:29.234Z,99642.19
2023-06-17T22:36:54.333Z,99646.09
2023-06-17T22:41:17.607Z,99641.03
2023-06-17T22:45:41.911Z,99646.53
2023-06-17T22:50:06.307Z,99645.88
2023-06-17T22:54:32.507Z,99629.03
2023-06-17T22:58:55.749Z,99633.66
2023-06-17T23:03:19.864Z,99623.00
2023-06-17T23:07:43.083Z,99622.22
2023-06-17T23:12:09.356Z,99629.50
2023-06-17T23:16:32.712Z,99634.03
2023-06-17T23:20:56.654Z,99630.66
2023-06-17T23:25:19.886Z,99626.34
2023-06-17T23:29:45.557Z,99625.63
2023-06-17T23:34:09.337Z,99620.56
2023-06-17T23:38:33.776Z,99635.03
2023-06-17T23:42:57.061Z,99627.22
2023-06-17T23:47:24.234Z,99634.41
2023-06-17T23:51:47.487Z,99631.00
2023-06-17T23:56:11.783Z,99632.81
